Time;durP1;ratioP1;P1;durP2;ratioP2;P2;SDS_P1;SDS_P2;PMS_P1;PMS_P2;Temp;Humidity;BMP_temperature;BMP_pressure;BME280_temperature;BME280_humidity;BME280_pressure;Samples;Min_cycle;Max_cycle;Signal;HPM_P1;HPM_P2
2022/03/01 00:01:54;;;;;;;;;;;;;;;-1.94;56.71;102919.26;1765194;79;25712;-67
2022/03/01 00:04:21;;;;;;;;;;;;;;;-1.96;56.77;102925.34;1764056;79;83910;-66
2022/03/01 00:06:47;;;;;;;;;;;;;;;-1.99;56.71;102919.95;1756299;80;27429;-66
2022/03/01 00:09:12;;;;;;;;;;;;;;;-2.00;56.83;102927.77;1755285;80;84214;-66
2022/03/01 00:11:38;;;;;;;;;;;;;;;-2.01;56.92;102916.36;1729085;80;25871;-66
2022/03/01 00:14:05;;;;;;;;;;;;;;;-2.02;56.96;102915.88;1732643;81;25785;-66
2022/03/01 00:16:32;;;;;;;;;;;;;;;-2.04;56.80;102918.85;1700009;82;83976;-66
2022/03/01 00:18:58;;;;;;;;;;;;;;;-2.05;56.86;102914.84;1700381;82;27491;-66
2022/03/01 00:21:25;;;;;;;;;;;;;;;-2.06;57.00;102909.11;1701411;82;83907;-66
2022/03/01 00:23:50;;;;;;;;;;;;;;;-2.08;57.17;102910.77;1701512;82;25785;-66
2022/03/01 00:26:16;;;;;;;;;;;;;;;-2.10;57.21;102911.11;1757574;80;26112;-66
2022/03/01 00:28:43;;;;;;;;;;;;;;;-2.12;57.28;102919.34;1758341;80;83937;-67
2022/03/01 00:31:08;;;;;;;;;;;;;;;-2.13;57.39;102917.13;1757787;80;27448;-68
2022/03/01 00:33:35;;;;;;;;;;;;;;;-2.14;57.45;102913.12;1753590;80;83823;-66
2022/03/01 00:36:01;;;;;;;;;;;;;;;-2.17;57.49;102910.36;1760710;79;25845;-66
2022/03/01 00:38:27;;;;;;;;;;;;;;;-2.19;57.56;102910.29;1754295;80;25851;-66
2022/03/01 00:40:54;;;;;;;;;;;;;;;-2.20;57.47;102904.55;1757067;80;84461;-66
2022/03/01 00:43:21;;;;;;;;;;;;;;;-2.19;57.69;102912.02;1761019;80;28078;-66
2022/03/01 00:45:47;;;;;;;;;;;;;;;-2.18;57.70;102912.50;1755035;80;84924;-66
2022/03/01 00:48:13;;;;;;;;;;;;;;;-2.17;57.78;102913.88;1762660;80;25857;-66
2022/03/01 00:50:39;;;;;;;;;;;;;;;-2.15;57.85;102914.84;1761110;80;84979;-66
2022/03/01 00:53:05;;;;;;;;;;;;;;;-2.14;57.86;102911.39;1765161;80;25695;-66
2022/03/01 00:55:33;;;;;;;;;;;;;;;-2.14;57.90;102910.49;1760802;80;46468;-68
2022/03/01 00:57:59;;;;;;;;;;;;;;;-2.12;57.97;102910.14;1759179;80;83908;-68
2022/03/01 01:00:24;;;;;;;;;;;;;;;-2.10;58.02;102905.86;1760333;80;26028;-66
2022/03/01 01:02:50;;;;;;;;;;;;;;;-2.08;58.01;102905.52;1745081;80;84207;-68
2022/03/01 01:05:16;;;;;;;;;;;;;;;-2.08;58.03;102906.41;1757624;80;25892;-66
2022/03/01 01:07:42;;;;;;;;;;;;;;;-2.06;58.10;102904.75;1760133;80;27435;-66
2022/03/01 01:10:09;;;;;;;;;;;;;;;-2.04;58.20;102914.02;1757585;80;83954;-66
2022/03/01 01:12:36;;;;;;;;;;;;;;;-2.02;58.17;102909.72;1734227;80;25870;-66
2022/03/01 01:15:03;;;;;;;;;;;;;;;-1.99;58.22;102904.60;1752804;80;84192;-66
2022/03/01 01:17:29;;;;;;;;;;;;;;;-2.01;58.26;102911.11;1760613;79;26444;-66
2022/03/01 01:19:54;;;;;;;;;;;;;;;-2.01;58.28;102907.16;1754990;80;27410;-66
2022/03/01 01:25:05;;;;;;;;;;;;;;;-2.00;58.34;102905.44;1753762;80;25708;-66
2022/03/01 01:27:31;;;;;;;;;;;;;;;-2.01;58.38;102902.32;1760121;80;84171;-66
2022/03/01 01:29:57;;;;;;;;;;;;;;;-2.02;58.41;102900.53;1760798;80;25818;-66
2022/03/01 01:32:23;;;;;;;;;;;;;;;-2.03;58.48;102907.51;1756159;80;27444;-66
2022/03/01 01:34:48;;;;;;;;;;;;;;;-2.02;58.50;102903.16;1755550;80;84119;-66
2022/03/01 01:37:14;;;;;;;;;;;;;;;-2.03;58.47;102904.88;1753025;80;25857;-66
2022/03/01 01:39:40;;;;;;;;;;;;;;;-2.00;58.53;102905.02;1756090;80;83975;-66
2022/03/01 01:42:06;;;;;;;;;;;;;;;-1.99;58.53;102907.23;1755617;80;26583;-66
2022/03/01 01:44:33;;;;;;;;;;;;;;;-1.98;58.54;102907.71;1759151;80;27484;-66
2022/03/01 01:46:59;;;;;;;;;;;;;;;-1.99;58.58;102906.81;1758810;80;83906;-66
2022/03/01 01:49:25;;;;;;;;;;;;;;;-1.97;58.61;102910.83;1756820;80;26559;-66
2022/03/01 01:51:51;;;;;;;;;;;;;;;-1.99;58.64;102904.19;1757243;79;83908;-66
2022/03/01 01:54:16;;;;;;;;;;;;;;;-1.99;58.69;102901.56;1757494;80;26582;-66
2022/03/01 01:56:42;;;;;;;;;;;;;;;-1.98;58.72;102905.09;1759105;80;84036;-67
2022/03/01 01:59:08;;;;;;;;;;;;;;;-1.97;58.74;102912.14;1754337;80;25682;-66
2022/03/01 02:01:34;;;;;;;;;;;;;;;-1.98;58.77;102907.71;1723475;81;26122;-67
2022/03/01 02:03:59;;;;;;;;;;;;;;;-1.98;58.81;102913.87;1689745;83;84187;-66
2022/03/01 02:06:28;;;;;;;;;;;;;;;-1.99;58.83;102908.55;1704468;82;25749;-66
2022/03/01 02:08:54;;;;;;;;;;;;;;;-1.99;58.83;102903.29;1705920;82;84337;-66
2022/03/01 02:11:20;;;;;;;;;;;;;;;-2.02;58.90;102899.21;1688773;83;25946;-66
2022/03/01 02:13:46;;;;;;;;;;;;;;;-2.04;58.86;102900.87;1707582;82;26539;-66
2022/03/01 02:16:12;;;;;;;;;;;;;;;-2.09;58.90;102893.20;1682318;83;84104;-67
2022/03/01 02:18:38;;;;;;;;;;;;;;;-2.06;58.92;102897.28;1703381;82;25818;-66
2022/03/01 02:21:04;;;;;;;;;;;;;;;-2.07;59.01;102892.44;1699201;82;84362;-66
2022/03/01 02:23:29;;;;;;;;;;;;;;;-2.07;59.03;102890.23;1725692;81;26485;-66
2022/03/01 02:25:55;;;;;;;;;;;;;;;-2.08;58.93;102898.53;1725184;81;25914;-67
2022/03/01 02:28:21;;;;;;;;;;;;;;;-2.08;59.07;102892.38;1722339;81;83862;-66
2022/03/01 02:30:46;;;;;;;;;;;;;;;-2.08;59.02;102892.38;1725284;81;25894;-67
2022/03/01 02:33:12;;;;;;;;;;;;;;;-2.10;59.15;102889.68;1727465;81;84243;-67
2022/03/01 02:35:38;;;;;;;;;;;;;;;-2.10;59.21;102896.25;1756105;80;26196;-66
2022/03/01 02:38:04;;;;;;;;;;;;;;;-2.10;59.25;102895.34;1754586;80;25794;-66
2022/03/01 02:40:30;;;;;;;;;;;;;;;-2.12;59.25;102894.38;1750326;80;84039;-66
2022/03/01 02:42:55;;;;;;;;;;;;;;;-2.14;59.30;102892.10;1759381;80;25845;-66
2022/03/01 02:45:22;;;;;;;;;;;;;;;-2.15;59.34;102894.25;1753495;80;83863;-66
2022/03/01 02:47:48;;;;;;;;;;;;;;;-2.17;59.42;102896.80;1760356;80;25866;-67
2022/03/01 02:50:14;;;;;;;;;;;;;;;-2.18;59.42;102902.89;1757079;80;26531;-67
2022/03/01 02:52:40;;;;;;;;;;;;;;;-2.19;59.47;102897.56;1749651;80;83894;-66
2022/03/01 02:55:07;;;;;;;;;;;;;;;-2.19;59.47;102898.88;1760541;80;25917;-67
2022/03/01 02:57:33;;;;;;;;;;;;;;;-2.20;59.50;102892.73;1717933;81;83890;-66
2022/03/01 02:59:58;;;;;;;;;;;;;;;-2.22;59.52;102888.23;1725570;81;25851;-66
2022/03/01 03:02:24;;;;;;;;;;;;;;;-2.22;59.56;102888.23;1702196;82;25831;-67
2022/03/01 03:04:51;;;;;;;;;;;;;;;-2.22;59.54;102888.23;1707734;82;84047;-67
2022/03/01 03:07:17;;;;;;;;;;;;;;;-2.24;59.64;102878.98;1732661;81;25702;-67
2022/03/01 03:09:43;;;;;;;;;;;;;;;-2.26;59.71;102884.58;1730823;81;83849;-66
2022/03/01 03:12:10;;;;;;;;;;;;;;;-2.25;59.72;102884.16;1699555;83;25811;-66
2022/03/01 03:14:36;;;;;;;;;;;;;;;-2.26;59.74;102875.80;1698233;82;84277;-67
2022/03/01 03:17:03;;;;;;;;;;;;;;;-2.26;59.78;102866.60;1732156;81;25786;-66
2022/03/01 03:19:28;;;;;;;;;;;;;;;-2.27;59.69;102861.77;1753993;80;25878;-66
2022/03/01 03:21:54;;;;;;;;;;;;;;;-2.27;59.77;102856.92;1759239;79;84032;-67
2022/03/01 03:24:20;;;;;;;;;;;;;;;-2.26;59.82;102863.98;1755554;80;25900;-66
2022/03/01 03:26:45;;;;;;;;;;;;;;;-2.29;59.71;102860.80;1754620;80;84302;-66
2022/03/01 03:29:12;;;;;;;;;;;;;;;-2.27;59.79;102860.87;1758296;80;25897;-66
2022/03/01 03:31:39;;;;;;;;;;;;;;;-2.30;59.81;102859.90;1757553;80;25739;-66
2022/03/01 03:34:08;;;;;;;;;;;;;;;-2.31;59.74;102859.42;1757795;80;83918;-66
2022/03/01 03:36:35;;;;;;;;;;;;;;;-2.32;59.96;102856.72;1756725;80;25722;-66
2022/03/01 03:39:03;;;;;;;;;;;;;;;-2.35;59.91;102854.86;1762667;80;83998;-66
2022/03/01 03:41:28;;;;;;;;;;;;;;;-2.37;59.90;102855.62;1757617;80;25707;-66
2022/03/01 03:43:54;;;;;;;;;;;;;;;-2.39;60.00;102852.03;1761532;80;25867;-66
2022/03/01 03:46:22;;;;;;;;;;;;;;;-2.42;59.97;102856.73;1759132;79;83914;-68
2022/03/01 03:48:50;;;;;;;;;;;;;;;-2.42;60.12;102852.78;1756253;80;25589;-66
2022/03/01 03:51:18;;;;;;;;;;;;;;;-2.43;60.18;102848.36;1755651;80;84196;-67
2022/03/01 03:53:43;;;;;;;;;;;;;;;-2.44;60.24;102846.98;1701474;81;25813;-67
2022/03/01 03:56:10;;;;;;;;;;;;;;;-2.47;60.31;102846.44;1701584;82;25747;-67
2022/03/01 03:58:36;;;;;;;;;;;;;;;-2.47;60.16;102859.98;1697083;82;84740;-66
2022/03/01 04:01:01;;;;;;;;;;;;;;;-2.49;60.21;102863.84;1700463;82;25904;-67
2022/03/01 04:03:27;;;;;;;;;;;;;;;-2.50;60.35;102852.86;1683203;82;83931;-67
2022/03/01 04:05:53;;;;;;;;;;;;;;;-2.53;60.35;102852.72;1686076;83;26451;-67
2022/03/01 04:08:18;;;;;;;;;;;;;;;-2.53;60.39;102854.45;1699976;82;25831;-67
2022/03/01 04:10:45;;;;;;;;;;;;;;;-2.54;60.32;102852.23;1725174;81;85195;-66
2022/03/01 04:13:11;;;;;;;;;;;;;;;-2.55;60.43;102850.86;1704060;82;26310;-67
2022/03/01 04:15:37;;;;;;;;;;;;;;;-2.57;60.59;102852.09;1687513;83;84723;-67
2022/03/01 04:18:03;;;;;;;;;;;;;;;-2.58;60.72;102845.05;1695825;83;25778;-67
2022/03/01 04:20:29;;;;;;;;;;;;;;;-2.60;60.64;102837.97;1693852;83;25741;-67
2022/03/01 04:22:56;;;;;;;;;;;;;;;-2.61;60.72;102827.88;1690259;83;84695;-67
2022/03/01 04:25:22;;;;;;;;;;;;;;;-2.62;60.79;102826.98;1693277;83;25896;-67
2022/03/01 04:27:49;;;;;;;;;;;;;;;-2.63;60.80;102830.85;1694944;83;84773;-67
2022/03/01 04:30:15;;;;;;;;;;;;;;;-2.66;60.94;102825.46;1689760;83;25736;-67
2022/03/01 04:32:43;;;;;;;;;;;;;;;-2.67;60.85;102827.19;1695793;83;85014;-68
2022/03/01 04:35:10;;;;;;;;;;;;;;;-2.68;60.86;102828.44;1696478;83;28428;-67
2022/03/01 04:37:37;;;;;;;;;;;;;;;-2.69;60.88;102818.77;1694615;83;25720;-66
2022/03/01 04:40:05;;;;;;;;;;;;;;;-2.73;60.89;102809.85;1712534;81;84132;-68
2022/03/01 04:42:31;;;;;;;;;;;;;;;-2.74;60.89;102809.78;1722945;81;26094;-66
2022/03/01 04:44:57;;;;;;;;;;;;;;;-2.76;60.98;102803.56;1723366;82;85386;-68
2022/03/01 04:47:22;;;;;;;;;;;;;;;-2.77;61.05;102800.45;1726035;81;27396;-68
2022/03/01 04:49:48;;;;;;;;;;;;;;;-2.78;61.10;102794.31;1724356;82;25785;-68
2022/03/01 04:52:13;;;;;;;;;;;;;;;-2.80;61.18;102792.45;1721773;81;85120;-68
2022/03/01 04:54:39;;;;;;;;;;;;;;;-2.82;61.20;102784.92;1720650;82;26646;-68
2022/03/01 04:57:05;;;;;;;;;;;;;;;-2.84;61.17;102787.47;1719072;81;84475;-68
2022/03/01 04:59:31;;;;;;;;;;;;;;;-2.83;61.23;102784.44;1724373;82;28052;-68
2022/03/01 05:01:56;;;;;;;;;;;;;;;-2.86;61.18;102780.36;1722841;81;26347;-68
2022/03/01 05:04:22;;;;;;;;;;;;;;;-2.88;61.22;102779.39;1720318;83;84932;-68
2022/03/01 05:06:48;;;;;;;;;;;;;;;-2.90;61.20;102770.55;1721526;81;25866;-66
2022/03/01 05:09:13;;;;;;;;;;;;;;;-2.93;61.42;102768.69;1724010;81;85126;-68
2022/03/01 05:11:40;;;;;;;;;;;;;;;-2.95;61.34;102772.97;1727441;81;27460;-68
2022/03/01 05:14:05;;;;;;;;;;;;;;;-2.98;61.40;102771.52;1725665;81;25763;-68
2022/03/01 05:16:31;;;;;;;;;;;;;;;-3.01;61.45;102766.13;1728094;81;84180;-68
2022/03/01 05:18:57;;;;;;;;;;;;;;;-3.02;61.56;102762.61;1717594;81;26519;-68
2022/03/01 05:21:22;;;;;;;;;;;;;;;-3.03;61.62;102763.84;1725404;81;84907;-68
2022/03/01 05:23:48;;;;;;;;;;;;;;;-3.04;61.65;102772.13;1723811;81;27966;-68
2022/03/01 05:26:14;;;;;;;;;;;;;;;-3.06;61.62;102772.48;1728034;81;25783;-68
2022/03/01 05:28:39;;;;;;;;;;;;;;;-3.08;61.70;102774.12;1698911;82;84140;-68
2022/03/01 05:31:05;;;;;;;;;;;;;;;-3.10;61.77;102767.91;1713130;82;25861;-68
2022/03/01 05:33:31;;;;;;;;;;;;;;;-3.11;61.79;102773.09;1665954;84;84197;-68
2022/03/01 05:35:59;;;;;;;;;;;;;;;-3.13;61.74;102778.27;1695272;82;27458;-70
2022/03/01 05:38:24;;;;;;;;;;;;;;;-3.14;61.91;102779.50;1665830;84;25773;-69
2022/03/01 05:40:50;;;;;;;;;;;;;;;-3.16;61.95;102780.75;1688299;82;85381;-71
2022/03/01 05:43:16;;;;;;;;;;;;;;;-3.18;61.92;102778.46;1698003;82;26746;-71
2022/03/01 05:45:41;;;;;;;;;;;;;;;-3.18;61.91;102779.78;1698144;82;85015;-69
2022/03/01 05:48:07;;;;;;;;;;;;;;;-3.19;61.83;102777.98;1694327;82;28009;-69
2022/03/01 05:50:33;;;;;;;;;;;;;;;-3.20;62.04;102773.56;1697735;82;25832;-71
2022/03/01 05:52:59;;;;;;;;;;;;;;;-3.19;62.06;102783.64;1694098;82;84883;-69
2022/03/01 05:55:24;;;;;;;;;;;;;;;-3.19;62.22;102779.29;1696334;82;25887;-69
2022/03/01 05:57:50;;;;;;;;;;;;;;;-3.19;62.27;102782.33;1697892;83;84231;-69
2022/03/01 06:00:18;;;;;;;;;;;;;;;-3.17;62.25;102780.67;1661321;84;28073;-71
2022/03/01 06:02:45;;;;;;;;;;;;;;;-3.17;62.18;102782.88;1704112;81;84193;-70
2022/03/01 06:05:17;;;;;;;;;;;;;;;-3.15;62.29;102782.55;1726730;81;25971;-70
2022/03/01 06:07:44;;;;;;;;;;;;;;;-3.12;62.38;102788.34;1759125;80;26180;-69
2022/03/01 06:10:10;;;;;;;;;;;;;;;-3.12;62.38;102790.97;1758740;80;84156;-69
2022/03/01 06:12:35;;;;;;;;;;;;;;;-3.08;62.39;102791.59;1758994;80;27382;-69
2022/03/01 06:15:02;;;;;;;;;;;;;;;-3.06;62.43;102790.84;1754108;80;84367;-69
2022/03/01 06:17:28;;;;;;;;;;;;;;;-3.01;62.49;102804.17;1761009;80;25834;-69
2022/03/01 06:19:54;;;;;;;;;;;;;;;-2.99;62.51;102800.78;1754259;80;25965;-69
2022/03/01 06:22:20;;;;;;;;;;;;;;;-2.95;62.47;102800.09;1759806;80;84872;-69
2022/03/01 06:24:46;;;;;;;;;;;;;;;-2.90;62.49;102794.16;1755060;80;27453;-69
2022/03/01 06:27:13;;;;;;;;;;;;;;;-2.84;62.53;102789.20;1729685;81;84281;-70
2022/03/01 06:29:38;;;;;;;;;;;;;;;-2.82;62.60;102785.81;1760697;80;25754;-70
2022/03/01 06:32:06;;;;;;;;;;;;;;;-2.77;62.56;102790.86;1756762;80;25821;-69
2022/03/01 06:34:32;;;;;;;;;;;;;;;-2.73;62.66;102789.27;1753140;80;84183;-69
2022/03/01 06:36:58;;;;;;;;;;;;;;;-2.70;62.71;102788.99;1764764;80;28091;-69
2022/03/01 06:39:26;;;;;;;;;;;;;;;-2.67;62.60;102788.23;1759649;80;85336;-69
2022/03/01 06:41:52;;;;;;;;;;;;;;;-2.63;62.64;102788.44;1757306;80;25825;-69
2022/03/01 06:44:18;;;;;;;;;;;;;;;-2.62;62.65;102790.23;1755374;80;26382;-69
2022/03/01 06:46:43;;;;;;;;;;;;;;;-2.57;62.81;102789.50;1753309;80;84724;-68
2022/03/01 06:49:09;;;;;;;;;;;;;;;-2.55;62.86;102790.05;1762559;80;27459;-69
2022/03/01 06:51:35;;;;;;;;;;;;;;;-2.51;62.87;102792.40;1759219;80;85057;-69
2022/03/01 06:54:01;;;;;;;;;;;;;;;-2.48;62.89;102792.53;1755537;80;25714;-70
2022/03/01 06:56:27;;;;;;;;;;;;;;;-2.46;62.83;102789.14;1762401;78;25707;-70
2022/03/01 06:58:53;;;;;;;;;;;;;;;-2.43;62.88;102795.84;1756438;80;83773;-68
2022/03/01 07:01:19;;;;;;;;;;;;;;;-2.40;62.86;102788.10;1758516;80;28084;-70
2022/03/01 07:03:47;;;;;;;;;;;;;;;-2.36;63.00;102796.59;1751388;80;84524;-70
2022/03/01 07:06:13;;;;;;;;;;;;;;;-2.30;63.07;102793.34;1755545;80;25731;-71
2022/03/01 07:08:39;;;;;;;;;;;;;;;-2.25;63.08;102793.13;1731673;81;85172;-71
2022/03/01 07:11:04;;;;;;;;;;;;;;;-2.22;63.00;102789.73;1762887;80;25885;-70
2022/03/01 07:13:30;;;;;;;;;;;;;;;-2.17;63.04;102789.52;1760725;80;27507;-71
2022/03/01 07:15:56;;;;;;;;;;;;;;;-2.12;63.09;102788.87;1754249;80;83792;-71
2022/03/01 07:18:21;;;;;;;;;;;;;;;-2.06;63.13;102797.44;1755817;80;26307;-71
2022/03/01 07:20:47;;;;;;;;;;;;;;;-2.04;63.16;102790.52;1752802;80;84221;-72
2022/03/01 07:23:13;;;;;;;;;;;;;;;-1.94;63.14;102795.33;1734695;80;25807;-72
2022/03/01 07:25:39;;;;;;;;;;;;;;;-1.89;63.15;102797.73;1766840;80;27375;-72
2022/03/01 07:28:05;;;;;;;;;;;;;;;-1.82;63.24;102792.31;1763499;80;83912;-72
2022/03/01 07:30:31;;;;;;;;;;;;;;;-1.76;63.24;102790.83;1758803;80;25945;-72
2022/03/01 07:32:58;;;;;;;;;;;;;;;-1.71;63.24;102801.12;1760997;80;84114;-72
2022/03/01 07:35:25;;;;;;;;;;;;;;;-1.65;63.21;102801.79;1760899;80;25883;-72
2022/03/01 07:37:51;;;;;;;;;;;;;;;-1.59;63.21;102796.78;1760068;80;26866;-70
2022/03/01 07:40:19;;;;;;;;;;;;;;;-1.53;63.28;102798.34;1757412;80;84007;-71
2022/03/01 07:42:45;;;;;;;;;;;;;;;-1.47;63.30;102798.59;1758375;80;25754;-71
2022/03/01 07:45:11;;;;;;;;;;;;;;;-1.41;63.28;102804.52;1757045;80;84116;-71
2022/03/01 07:47:37;;;;;;;;;;;;;;;-1.36;63.30;102793.75;1753731;80;26441;-72
2022/03/01 07:50:05;;;;;;;;;;;;;;;-1.33;63.33;102789.52;1752853;80;28026;-71
2022/03/01 07:52:31;;;;;;;;;;;;;;;-1.26;63.36;102795.91;1725274;80;84042;-73
2022/03/01 07:54:57;;;;;;;;;;;;;;;-1.20;63.41;102790.89;1760771;80;25866;-73
2022/03/01 07:57:22;;;;;;;;;;;;;;;-1.13;63.41;102795.55;1755020;80;84206;-72
2022/03/01 07:59:48;;;;;;;;;;;;;;;-1.07;63.44;102793.16;1759467;80;26547;-72
2022/03/01 08:02:14;;;;;;;;;;;;;;;-0.98;63.44;102795.25;1755713;80;26047;-72
2022/03/01 08:04:41;;;;;;;;;;;;;;;-0.91;63.46;102799.01;1755301;80;83987;-73
2022/03/01 08:07:09;;;;;;;;;;;;;;;-0.83;63.44;102790.98;1751932;80;25822;-73
2022/03/01 08:09:36;;;;;;;;;;;;;;;-0.77;63.47;102788.16;1750804;80;84761;-72
2022/03/01 08:12:02;;;;;;;;;;;;;;;-0.69;63.48;102788.02;1753209;79;26324;-74
2022/03/01 08:14:30;;;;;;;;;;;;;;;-0.60;63.41;102791.41;1752627;80;27486;-74
2022/03/01 08:16:56;;;;;;;;;;;;;;;-0.54;63.44;102787.68;1731862;81;84512;-72
2022/03/01 08:19:23;;;;;;;;;;;;;;;-0.46;63.46;102782.27;1695534;81;25899;-74
2022/03/01 08:21:48;;;;;;;;;;;;;;;-0.37;63.47;102783.91;1729909;80;83982;-73
2022/03/01 08:24:14;;;;;;;;;;;;;;;-0.28;63.47;102784.66;1728700;81;25925;-72
2022/03/01 08:26:40;;;;;;;;;;;;;;;-0.17;63.45;102786.34;1725856;81;85625;-72
2022/03/01 08:29:07;;;;;;;;;;;;;;;-0.08;63.43;102780.08;1726808;81;25966;-72
2022/03/01 08:31:32;;;;;;;;;;;;;;;0.02;63.42;102779.52;1724205;81;25712;-69
2022/03/01 08:33:59;;;;;;;;;;;;;;;0.12;63.40;102778.98;1725342;81;83841;-71
2022/03/01 08:36:26;;;;;;;;;;;;;;;0.22;63.37;102784.14;1727378;81;25719;-70
2022/03/01 08:38:52;;;;;;;;;;;;;;;0.31;63.36;102786.66;1726865;81;84943;-71
2022/03/01 08:41:18;;;;;;;;;;;;;;;0.40;63.34;102777.25;1723113;81;25823;-70
2022/03/01 08:43:44;;;;;;;;;;;;;;;0.49;63.34;102777.55;1736106;80;26005;-69
2022/03/01 08:46:12;;;;;;;;;;;;;;;0.56;63.31;102780.42;1694888;82;84631;-69
2022/03/01 08:48:39;;;;;;;;;;;;;;;0.64;63.33;102783.30;1695203;82;25710;-69
2022/03/01 08:51:04;;;;;;;;;;;;;;;0.74;63.33;102789.34;1694580;82;84033;-69
2022/03/01 08:53:32;;;;;;;;;;;;;;;0.83;63.31;102783.03;1700290;82;26413;-69
2022/03/01 08:55:59;;;;;;;;;;;;;;;0.94;63.29;102784.25;1721818;82;26090;-70
2022/03/01 08:58:25;;;;;;;;;;;;;;;1.05;63.25;102782.35;1719295;81;83849;-70
2022/03/01 09:00:51;;;;;;;;;;;;;;;1.13;63.18;102777.77;1726641;81;26411;-72
2022/03/01 09:03:17;;;;;;;;;;;;;;;1.19;63.14;102771.77;1702719;81;84046;-70
2022/03/01 09:05:43;;;;;;;;;;;;;;;1.25;63.13;102770.62;1715695;82;26434;-70
2022/03/01 09:08:12;;;;;;;;;;;;;;;1.32;63.14;102760.70;1717683;81;25924;-70
2022/03/01 09:10:36;;;;;;;;;;;;;;;1.39;63.10;102762.67;1718436;81;83908;-72
2022/03/01 09:13:02;;;;;;;;;;;;;;;1.48;63.07;102760.70;1746771;80;25824;-73
2022/03/01 09:15:31;;;;;;;;;;;;;;;1.55;63.08;102756.06;1740983;80;83795;-71
2022/03/01 09:17:58;;;;;;;;;;;;;;;1.62;63.02;102752.73;1741593;80;28802;-73
2022/03/01 09:20:24;;;;;;;;;;;;;;;1.69;62.98;102747.18;1739763;80;25736;-72
2022/03/01 09:22:50;;;;;;;;;;;;;;;1.79;62.98;102747.89;1741644;80;83798;-73
2022/03/01 09:25:16;;;;;;;;;;;;;;;1.88;62.88;102750.77;1739388;80;25759;-70
2022/03/01 09:27:41;;;;;;;;;;;;;;;1.93;62.82;102752.68;1743131;80;84443;-69
2022/03/01 09:30:08;;;;;;;;;;;;;;;1.97;62.78;102741.75;1744228;80;26040;-70
2022/03/01 09:32:34;;;;;;;;;;;;;;;2.03;62.74;102739.27;1745573;80;25958;-72
2022/03/01 09:35:00;;;;;;;;;;;;;;;2.10;62.73;102742.95;1743963;80;83787;-72
2022/03/01 09:37:26;;;;;;;;;;;;;;;2.15;62.67;102739.56;1738195;80;25787;-72
2022/03/01 09:39:52;;;;;;;;;;;;;;;2.20;62.66;102735.28;1718703;81;83765;-70
2022/03/01 09:42:18;;;;;;;;;;;;;;;2.28;62.62;102728.86;1695364;82;25870;-71
2022/03/01 09:44:44;;;;;;;;;;;;;;;2.36;62.56;102725.06;1742079;80;84543;-71
2022/03/01 09:47:10;;;;;;;;;;;;;;;2.42;62.53;102731.40;1745856;80;26215;-72
2022/03/01 09:49:35;;;;;;;;;;;;;;;2.49;62.52;102725.39;1745089;80;26428;-69
2022/03/01 09:52:01;;;;;;;;;;;;;;;2.55;62.47;102725.53;1740638;80;84715;-69
2022/03/01 09:54:28;;;;;;;;;;;;;;;2.57;62.37;102721.16;1744932;80;25818;-71
2022/03/01 09:56:54;;;;;;;;;;;;;;;2.60;62.26;102712.39;1738682;80;84814;-72
2022/03/01 09:59:19;;;;;;;;;;;;;;;2.66;62.26;102707.63;1740655;80;25778;-72
2022/03/01 10:01:52;;;;;;;;;;;;;;;2.72;62.34;102710.41;1749069;82;25681;-71
2022/03/01 10:04:18;;;;;;;;;;;;;;;2.79;62.18;102711.91;1747869;81;84076;-72
2022/03/01 10:06:46;;;;;;;;;;;;;;;2.85;62.09;102706.73;1748974;82;25981;-72
2022/03/01 10:09:20;;;;;;;;;;;;;;;2.89;62.02;102712.56;1747968;82;83915;-72
2022/03/01 10:11:47;;;;;;;;;;;;;;;2.89;61.87;102705.95;1749065;81;25627;-71
2022/03/01 10:14:13;;;;;;;;;;;;;;;2.91;61.96;102712.59;1749439;82;25962;-68
2022/03/01 10:16:44;;;;;;;;;;;;;;;2.96;61.76;102699.45;1747638;81;83738;-70
2022/03/01 10:19:17;;;;;;;;;;;;;;;2.98;61.76;102697.73;1749136;81;25999;-69
2022/03/01 10:21:58;;;;;;;;;;;;;;;3.04;61.83;102700.50;1747482;81;83840;-69
2022/03/01 10:24:23;;;;;;;;;;;;;;;3.11;61.73;102686.09;1749039;82;26143;-71
2022/03/01 10:26:49;;;;;;;;;;;;;;;3.21;61.65;102683.19;1747990;82;84709;-73
2022/03/01 10:29:16;;;;;;;;;;;;;;;3.29;61.62;102685.98;1749260;82;27370;-73
2022/03/01 10:31:46;;;;;;;;;;;;;;;3.37;61.68;102685.27;1749349;82;25760;-72
2022/03/01 10:34:11;;;;;;;;;;;;;;;3.40;61.38;102679.12;1748526;81;83859;-71
2022/03/01 10:36:48;;;;;;;;;;;;;;;3.46;61.38;102677.48;1748975;81;25655;-72
2022/03/01 10:39:13;;;;;;;;;;;;;;;3.54;61.43;102674.97;1747891;81;84030;-71
2022/03/01 10:41:44;;;;;;;;;;;;;;;3.67;61.32;102674.75;1748987;82;28187;-70
2022/03/01 10:44:18;;;;;;;;;;;;;;;3.77;61.22;102682.00;1749126;81;27310;-70
2022/03/01 10:46:48;;;;;;;;;;;;;;;3.82;61.17;102671.03;1735194;80;83756;-71
2022/03/01 10:49:17;;;;;;;;;;;;;;;3.84;61.04;102664.00;1744644;80;25810;-70
2022/03/01 10:51:54;;;;;;;;;;;;;;;3.93;61.14;102660.60;1705426;81;83990;-70
2022/03/01 10:54:30;;;;;;;;;;;;;;;4.01;60.91;102651.89;1684791;83;27456;-72
2022/03/01 10:56:57;;;;;;;;;;;;;;;4.14;60.77;102654.30;1677845;83;84810;-68
2022/03/01 10:59:24;;;;;;;;;;;;;;;4.20;60.73;102647.33;1715647;82;25803;-69
2022/03/01 11:01:50;;;;;;;;;;;;;;;4.32;60.81;102646.61;1715938;82;25899;-68
2022/03/01 11:04:15;;;;;;;;;;;;;;;4.42;60.57;102643.22;1710162;82;83512;-70
2022/03/01 11:06:42;;;;;;;;;;;;;;;4.57;60.49;102635.89;1706495;82;27398;-69
2022/03/01 11:09:09;;;;;;;;;;;;;;;4.69;60.52;102636.48;1663964;83;84147;-70
2022/03/01 11:11:35;;;;;;;;;;;;;;;4.74;60.30;102626.37;1694362;83;26058;-70
2022/03/01 11:14:03;;;;;;;;;;;;;;;4.74;60.14;102620.17;1690481;83;26562;-70
2022/03/01 11:16:42;;;;;;;;;;;;;;;4.87;60.18;102623.43;1693402;83;85159;-69
2022/03/01 11:19:41;;;;;;;;;;;;;;;4.97;60.12;102618.67;1690407;83;28721;-70
2022/03/01 11:22:06;;;;;;;;;;;;;;;5.05;60.08;102613.44;1691756;83;83857;-70
2022/03/01 11:24:33;;;;;;;;;;;;;;;5.22;59.91;102611.38;1696261;82;25876;-70
2022/03/01 11:27:08;;;;;;;;;;;;;;;5.35;59.73;102607.08;1692857;83;84859;-70
2022/03/01 11:29:39;;;;;;;;;;;;;;;5.43;59.40;102594.74;1696352;82;25836;-69
2022/03/01 11:32:11;;;;;;;;;;;;;;;5.53;59.60;102593.94;1694552;83;27525;-70
2022/03/01 11:34:37;;;;;;;;;;;;;;;5.65;59.40;102590.94;1689136;83;83860;-70
2022/03/01 11:37:02;;;;;;;;;;;;;;;5.79;59.37;102588.83;1743382;80;26462;-69
2022/03/01 11:39:32;;;;;;;;;;;;;;;5.93;59.42;102582.31;1744061;80;83662;-71
2022/03/01 11:42:14;;;;;;;;;;;;;;;5.82;58.71;102575.98;1738113;80;25748;-70
2022/03/01 11:44:41;;;;;;;;;;;;;;;5.74;58.84;102573.27;1744232;80;83811;-68
2022/03/01 11:47:12;;;;;;;;;;;;;;;5.77;58.55;102569.30;1742600;80;25786;-69
2022/03/01 11:49:39;;;;;;;;;;;;;;;5.90;58.58;102566.76;1743348;80;25721;-68
2022/03/01 11:52:17;;;;;;;;;;;;;;;6.08;58.72;102565.55;1738585;80;84610;-68
2022/03/01 11:54:44;;;;;;;;;;;;;;;6.15;58.36;102564.25;1745805;80;25741;-72
2022/03/01 11:57:10;;;;;;;;;;;;;;;6.36;58.46;102554.59;1704008;82;84109;-71
2022/03/01 11:59:39;;;;;;;;;;;;;;;6.50;57.99;102562.20;1676737;83;26438;-71
2022/03/01 12:02:09;;;;;;;;;;;;;;;6.50;57.97;102545.78;1698855;83;26008;-69
2022/03/01 12:04:43;;;;;;;;;;;;;;;6.55;57.79;102550.23;1667588;82;83747;-71
2022/03/01 12:07:09;;;;;;;;;;;;;;;6.55;57.61;102544.91;1702336;82;25878;-70
2022/03/01 12:09:38;;;;;;;;;;;;;;;6.69;57.70;102542.73;1695832;82;83866;-68
2022/03/01 12:12:06;;;;;;;;;;;;;;;6.77;57.47;102538.75;1676543;83;26038;-71
2022/03/01 12:14:34;;;;;;;;;;;;;;;6.92;57.36;102532.57;1696278;83;26544;-68
2022/03/01 12:17:01;;;;;;;;;;;;;;;7.12;57.42;102528.16;1723515;81;83699;-69
2022/03/01 12:19:30;;;;;;;;;;;;;;;7.29;57.14;102518.83;1697463;83;25846;-72
2022/03/01 12:21:58;;;;;;;;;;;;;;;7.51;57.23;102518.37;1727226;81;83856;-71
2022/03/01 12:24:26;;;;;;;;;;;;;;;7.46;56.60;102512.60;1731309;81;26647;-70
2022/03/01 12:27:01;;;;;;;;;;;;;;;7.45;56.49;102505.48;1726001;81;83901;-70
2022/03/01 12:29:30;;;;;;;;;;;;;;;7.42;56.30;102502.83;1696174;82;26463;-71
2022/03/01 12:31:58;;;;;;;;;;;;;;;7.64;56.46;102503.69;1692158;82;25951;-69
2022/03/01 12:34:29;;;;;;;;;;;;;;;7.76;56.41;102489.43;1698710;82;83865;-68
2022/03/01 12:36:56;;;;;;;;;;;;;;;7.81;55.55;102499.62;1697586;82;25958;-69
2022/03/01 12:39:23;;;;;;;;;;;;;;;7.91;55.71;102494.70;1725874;81;84075;-70
2022/03/01 12:41:49;;;;;;;;;;;;;;;8.02;55.50;102504.90;1727984;81;26020;-68